LUN weather

Kenneth Kaunda International Airport
Lusaka, Lusaka Province, Zambia

Public forecast

Using degrees Celsius for public forecast. Weather courtesy of forecast.io.

Current aviation weather report (METAR) for Kenneth Kaunda International Airport

Retrieved 2019/11/21 07:00 UTC (25 minutes ago):

FLKK 210700Z 07005KT 9000 DZ SCT020 BKN090 20/17 Q1020

Closest aviation forecast (TAF) to Kenneth Kaunda International Airport

Retrieved 2019/11/21 06:00 UTC (1 hour ago):

TAF FLKK 210400Z 2106/2212 30005KT 9999 FEW025 SCT100 BECMG 2109/2112 33010KT 9999 FEW040CB SCT040 SCT100 PROB30 TEMPO 2113/2115 9000 -TSRA BECMG 2116/2120 VRB03KT 9999 FEW040CB BKN090